createdAt,value
2022-10-23T00:18:49.621Z,235
2022-10-23T00:38:49.409Z,227
2022-10-23T00:58:49.595Z,234
2022-10-23T01:18:49.553Z,233
2022-10-23T01:38:49.601Z,239
2022-10-23T02:18:49.495Z,236
2022-10-23T02:38:49.475Z,235
2022-10-23T02:58:49.454Z,231
2022-10-23T03:18:49.422Z,234
2022-10-23T03:38:49.394Z,233
2022-10-23T03:58:48.893Z,242
2022-10-23T04:18:49.362Z,236
2022-10-23T04:38:49.335Z,243
2022-10-23T04:58:49.117Z,233
2022-10-23T05:18:49.292Z,229
2022-10-23T05:38:49.259Z,233
2022-10-23T05:58:49.248Z,237
2022-10-23T06:18:49.225Z,238
2022-10-23T06:38:49.209Z,236
2022-10-23T06:58:49.168Z,241
2022-10-23T07:18:49.148Z,244
2022-10-23T07:38:49.136Z,247
2022-10-23T07:58:49.112Z,246
2022-10-23T08:18:49.087Z,241
2022-10-23T08:38:49.058Z,249
2022-10-23T08:58:49.072Z,226
2022-10-23T09:18:49.007Z,236
2022-10-23T09:38:48.557Z,232
2022-10-23T09:58:48.442Z,225
2022-10-23T10:18:48.922Z,241
2022-10-23T10:38:48.889Z,248
2022-10-23T10:58:48.882Z,239
2022-10-23T11:18:48.335Z,238
2022-10-23T11:38:48.788Z,242
2022-10-23T11:58:48.796Z,246
2022-10-23T12:18:48.741Z,225
2022-10-23T12:38:48.701Z,238
2022-10-23T12:58:48.671Z,236
2022-10-23T13:18:48.642Z,247
2022-10-23T13:38:48.618Z,239
2022-10-23T13:58:48.390Z,244
2022-10-23T14:18:48.357Z,241
2022-10-23T14:38:49.024Z,242
2022-10-23T14:58:48.514Z,245
2022-10-23T15:18:48.490Z,237
2022-10-23T15:38:48.457Z,245
2022-10-23T15:58:48.238Z,241
2022-10-23T16:18:47.911Z,247
2022-10-23T16:38:48.370Z,247
2022-10-23T16:58:48.189Z,246
2022-10-23T17:18:48.332Z,250
2022-10-23T17:38:48.084Z,244
2022-10-23T17:58:48.271Z,267
2022-10-23T18:18:48.236Z,266
2022-10-23T18:38:47.769Z,275
2022-10-23T18:58:48.191Z,268
2022-10-23T19:18:48.151Z,267
2022-10-23T19:38:47.642Z,268
2022-10-23T19:58:48.281Z,257
2022-10-23T20:18:48.076Z,263
2022-10-23T20:38:48.054Z,259
2022-10-23T21:18:48.010Z,269
2022-10-23T21:38:47.977Z,274
2022-10-23T21:58:47.958Z,265
2022-10-23T22:18:47.437Z,273
2022-10-23T22:38:47.906Z,275
2022-10-23T22:58:47.394Z,270
2022-10-23T23:18:47.861Z,265
2022-10-23T23:38:47.826Z,262
2022-10-23T23:58:47.797Z,263
